sensor_id;sensor_type;location;lat;lon;timestamp;pressure;altitude;pressure_sealevel;temperature;humidity
27587;BME280;15019;49.002;8.420;2022-09-16T00:00:44;99714.09;;;15.95;100.00
27587;BME280;15019;49.002;8.420;2022-09-16T00:03:11;99711.44;;;15.98;100.00
27587;BME280;15019;49.002;8.420;2022-09-16T00:05:44;99708.97;;;15.95;100.00
27587;BME280;15019;49.002;8.420;2022-09-16T00:08:13;99706.25;;;16.00;100.00
27587;BME280;15019;49.002;8.420;2022-09-16T00:10:39;99702.94;;;15.98;100.00
27587;BME280;15019;49.002;8.420;2022-09-16T00:13:04;99708.13;;;15.95;100.00
27587;BME280;15019;49.002;8.420;2022-09-16T00:15:30;99701.44;;;15.91;100.00
27587;BME280;15019;49.002;8.420;2022-09-16T00:17:58;99701.56;;;15.88;100.00
27587;BME280;15019;49.002;8.420;2022-09-16T00:20:24;99697.22;;;15.90;100.00
27587;BME280;15019;49.002;8.420;2022-09-16T00:22:52;99697.28;;;15.88;100.00
27587;BME280;15019;49.002;8.420;2022-09-16T00:25:19;99694.94;;;15.81;100.00
27587;BME280;15019;49.002;8.420;2022-09-16T00:27:48;99699.69;;;15.65;100.00
27587;BME280;15019;49.002;8.420;2022-09-16T00:30:13;99691.31;;;15.60;100.00
27587;BME280;15019;49.002;8.420;2022-09-16T00:32:38;99699.28;;;15.49;100.00
27587;BME280;15019;49.002;8.420;2022-09-16T00:35:05;99708.66;;;15.49;100.00
27587;BME280;15019;49.002;8.420;2022-09-16T00:37:33;99701.41;;;15.35;100.00
27587;BME280;15019;49.002;8.420;2022-09-16T00:39:58;99706.56;;;15.33;100.00
27587;BME280;15019;49.002;8.420;2022-09-16T00:42:26;99699.75;;;15.34;100.00
27587;BME280;15019;49.002;8.420;2022-09-16T00:45:10;99703.25;;;15.30;100.00
27587;BME280;15019;49.002;8.420;2022-09-16T00:47:47;99704.72;;;15.37;100.00
27587;BME280;15019;49.002;8.420;2022-09-16T00:52:42;99716.84;;;15.30;100.00
27587;BME280;15019;49.002;8.420;2022-09-16T00:55:14;99713.53;;;15.27;100.00
27587;BME280;15019;49.002;8.420;2022-09-16T00:57:41;99703.31;;;15.27;100.00
27587;BME280;15019;49.002;8.420;2022-09-16T01:00:08;99708.63;;;15.21;100.00
27587;BME280;15019;49.002;8.420;2022-09-16T01:02:35;99710.63;;;15.10;100.00
27587;BME280;15019;49.002;8.420;2022-09-16T01:05:13;99704.16;;;14.98;100.00
27587;BME280;15019;49.002;8.420;2022-09-16T01:07:53;99699.25;;;14.90;100.00
27587;BME280;15019;49.002;8.420;2022-09-16T01:10:23;99699.34;;;14.87;100.00
27587;BME280;15019;49.002;8.420;2022-09-16T01:12:56;99698.72;;;14.79;100.00
27587;BME280;15019;49.002;8.420;2022-09-16T01:15:35;99701.34;;;14.76;100.00
27587;BME280;15019;49.002;8.420;2022-09-16T01:18:16;99702.94;;;14.80;100.00
27587;BME280;15019;49.002;8.420;2022-09-16T01:21:05;99715.53;;;14.86;100.00
27587;BME280;15019;49.002;8.420;2022-09-16T01:26:39;99702.50;;;14.95;100.00
27587;BME280;15019;49.002;8.420;2022-09-16T01:31:42;99696.72;;;14.90;100.00
27587;BME280;15019;49.002;8.420;2022-09-16T01:34:57;99692.63;;;14.83;100.00
27587;BME280;15019;49.002;8.420;2022-09-16T01:46:22;99685.78;;;14.85;100.00
27587;BME280;15019;49.002;8.420;2022-09-16T01:49:13;99689.13;;;14.87;100.00
27587;BME280;15019;49.002;8.420;2022-09-16T01:51:52;99685.69;;;14.88;100.00
27587;BME280;15019;49.002;8.420;2022-09-16T01:54:26;99692.84;;;14.76;100.00
27587;BME280;15019;49.002;8.420;2022-09-16T01:57:06;99687.13;;;14.68;100.00
27587;BME280;15019;49.002;8.420;2022-09-16T01:59:43;99692.28;;;14.64;100.00
27587;BME280;15019;49.002;8.420;2022-09-16T02:02:36;99697.63;;;14.55;100.00
27587;BME280;15019;49.002;8.420;2022-09-16T02:05:08;99694.03;;;14.62;100.00
27587;BME280;15019;49.002;8.420;2022-09-16T02:07:37;99687.19;;;14.64;100.00
27587;BME280;15019;49.002;8.420;2022-09-16T02:10:25;99693.19;;;14.62;100.00
27587;BME280;15019;49.002;8.420;2022-09-16T02:12:55;99691.44;;;14.64;100.00
27587;BME280;15019;49.002;8.420;2022-09-16T02:15:23;99694.00;;;14.64;100.00
27587;BME280;15019;49.002;8.420;2022-09-16T02:17:56;99692.31;;;14.63;100.00
27587;BME280;15019;49.002;8.420;2022-09-16T02:20:26;99694.66;;;14.72;100.00
27587;BME280;15019;49.002;8.420;2022-09-16T02:23:24;99697.28;;;14.69;100.00
27587;BME280;15019;49.002;8.420;2022-09-16T02:25:51;99695.44;;;14.74;100.00
27587;BME280;15019;49.002;8.420;2022-09-16T02:28:26;99695.28;;;14.80;100.00
27587;BME280;15019;49.002;8.420;2022-09-16T02:30:55;99706.31;;;14.82;100.00
27587;BME280;15019;49.002;8.420;2022-09-16T02:33:30;99696.09;;;14.82;100.00
27587;BME280;15019;49.002;8.420;2022-09-16T02:35:58;99699.47;;;14.83;100.00
27587;BME280;15019;49.002;8.420;2022-09-16T02:38:30;99701.00;;;14.88;100.00
27587;BME280;15019;49.002;8.420;2022-09-16T02:40:58;99700.94;;;14.91;100.00
27587;BME280;15019;49.002;8.420;2022-09-16T02:43:25;99697.56;;;14.91;100.00
27587;BME280;15019;49.002;8.420;2022-09-16T02:46:13;99692.47;;;14.89;100.00
27587;BME280;15019;49.002;8.420;2022-09-16T02:54:24;99696.00;;;14.85;100.00
27587;BME280;15019;49.002;8.420;2022-09-16T02:56:55;99693.13;;;14.96;100.00
27587;BME280;15019;49.002;8.420;2022-09-16T02:59:21;99700.66;;;15.02;100.00
27587;BME280;15019;49.002;8.420;2022-09-16T03:01:49;99693.81;;;15.02;100.00
27587;BME280;15019;49.002;8.420;2022-09-16T03:04:17;99694.56;;;15.06;100.00
27587;BME280;15019;49.002;8.420;2022-09-16T03:06:43;99683.44;;;15.09;100.00
27587;BME280;15019;49.002;8.420;2022-09-16T03:09:11;99682.59;;;15.08;100.00
27587;BME280;15019;49.002;8.420;2022-09-16T03:15:25;99680.19;;;15.04;100.00
27587;BME280;15019;49.002;8.420;2022-09-16T03:17:57;99684.59;;;14.97;100.00
27587;BME280;15019;49.002;8.420;2022-09-16T03:31:30;99685.09;;;15.10;100.00
27587;BME280;15019;49.002;8.420;2022-09-16T03:34:17;99675.09;;;15.04;100.00
27587;BME280;15019;49.002;8.420;2022-09-16T03:36:48;99681.75;;;15.08;100.00
27587;BME280;15019;49.002;8.420;2022-09-16T03:39:15;99674.09;;;15.08;100.00
27587;BME280;15019;49.002;8.420;2022-09-16T03:41:41;99673.13;;;15.12;100.00
27587;BME280;15019;49.002;8.420;2022-09-16T03:44:08;99671.63;;;15.05;100.00
27587;BME280;15019;49.002;8.420;2022-09-16T03:46:34;99672.38;;;15.08;100.00
27587;BME280;15019;49.002;8.420;2022-09-16T03:48:59;99671.53;;;15.08;100.00
27587;BME280;15019;49.002;8.420;2022-09-16T03:51:25;99667.41;;;15.04;100.00
27587;BME280;15019;49.002;8.420;2022-09-16T03:53:52;99656.41;;;15.01;100.00
27587;BME280;15019;49.002;8.420;2022-09-16T03:56:21;99660.69;;;15.01;100.00
27587;BME280;15019;49.002;8.420;2022-09-16T03:58:47;99670.13;;;14.97;100.00
27587;BME280;15019;49.002;8.420;2022-09-16T04:01:13;99676.84;;;15.01;100.00
27587;BME280;15019;49.002;8.420;2022-09-16T04:03:39;99672.69;;;14.97;100.00
27587;BME280;15019;49.002;8.420;2022-09-16T04:06:06;99672.00;;;14.92;100.00
27587;BME280;15019;49.002;8.420;2022-09-16T04:08:31;99668.56;;;14.93;100.00
27587;BME280;15019;49.002;8.420;2022-09-16T04:10:58;99672.66;;;14.99;100.00
27587;BME280;15019;49.002;8.420;2022-09-16T04:13:24;99669.22;;;15.00;100.00
27587;BME280;15019;49.002;8.420;2022-09-16T04:15:50;99666.00;;;14.93;100.00
27587;BME280;15019;49.002;8.420;2022-09-16T04:18:15;99672.75;;;14.94;100.00
27587;BME280;15019;49.002;8.420;2022-09-16T04:20:41;99670.84;;;15.02;100.00
27587;BME280;15019;49.002;8.420;2022-09-16T04:23:06;99674.91;;;15.10;100.00
27587;BME280;15019;49.002;8.420;2022-09-16T04:25:35;99680.06;;;15.07;100.00
27587;BME280;15019;49.002;8.420;2022-09-16T04:28:03;99676.88;;;15.00;100.00
27587;BME280;15019;49.002;8.420;2022-09-16T04:30:30;99671.63;;;15.05;100.00
27587;BME280;15019;49.002;8.420;2022-09-16T04:32:58;99670.13;;;14.97;100.00
27587;BME280;15019;49.002;8.420;2022-09-16T04:35:25;99680.00;;;15.10;100.00
27587;BME280;15019;49.002;8.420;2022-09-16T04:37:51;99674.16;;;15.05;100.00
27587;BME280;15019;49.002;8.420;2022-09-16T04:40:17;99676.72;;;15.05;100.00
27587;BME280;15019;49.002;8.420;2022-09-16T04:42:50;99678.63;;;14.98;100.00
27587;BME280;15019;49.002;8.420;2022-09-16T04:45:16;99677.16;;;14.89;100.00
27587;BME280;15019;49.002;8.420;2022-09-16T04:47:44;99673.88;;;14.84;100.00
27587;BME280;15019;49.002;8.420;2022-09-16T04:50:12;99671.47;;;14.80;100.00
27587;BME280;15019;49.002;8.420;2022-09-16T04:52:38;99670.78;;;14.73;100.00
27587;BME280;15019;49.002;8.420;2022-09-16T04:55:04;99674.41;;;14.66;100.00
27587;BME280;15019;49.002;8.420;2022-09-16T04:57:31;99676.00;;;14.70;100.00
27587;BME280;15019;49.002;8.420;2022-09-16T05:00:00;99686.09;;;14.73;100.00
27587;BME280;15019;49.002;8.420;2022-09-16T05:02:25;99685.47;;;14.65;100.00
27587;BME280;15019;49.002;8.420;2022-09-16T05:04:51;99689.31;;;14.49;100.00
27587;BME280;15019;49.002;8.420;2022-09-16T05:07:16;99679.16;;;14.47;100.00
27587;BME280;15019;49.002;8.420;2022-09-16T05:09:41;99679.91;;;14.51;100.00
27587;BME280;15019;49.002;8.420;2022-09-16T05:12:09;99676.31;;;14.58;100.00
27587;BME280;15019;49.002;8.420;2022-09-16T05:14:38;99684.91;;;14.54;100.00
27587;BME280;15019;49.002;8.420;2022-09-16T05:17:03;99681.66;;;14.49;100.00
27587;BME280;15019;49.002;8.420;2022-09-16T05:19:32;99683.63;;;14.38;100.00
27587;BME280;15019;49.002;8.420;2022-09-16T05:21:57;99686.06;;;14.42;100.00
27587;BME280;15019;49.002;8.420;2022-09-16T05:24:25;99684.25;;;14.47;100.00
27587;BME280;15019;49.002;8.420;2022-09-16T05:26:52;99678.06;;;14.56;100.00
27587;BME280;15019;49.002;8.420;2022-09-16T05:29:20;99678.88;;;14.58;100.00
27587;BME280;15019;49.002;8.420;2022-09-16T05:31:45;99681.66;;;14.49;100.00
27587;BME280;15019;49.002;8.420;2022-09-16T05:34:14;99679.00;;;14.19;100.00
27587;BME280;15019;49.002;8.420;2022-09-16T05:36:41;99679.84;;;14.18;100.00
27587;BME280;15019;49.002;8.420;2022-09-16T05:39:07;99684.16;;;14.16;100.00
27587;BME280;15019;49.002;8.420;2022-09-16T05:41:33;99680.72;;;14.17;100.00
27587;BME280;15019;49.002;8.420;2022-09-16T05:43:58;99691.03;;;14.13;100.00
27587;BME280;15019;49.002;8.420;2022-09-16T05:46:24;99682.59;;;14.09;100.00
27587;BME280;15019;49.002;8.420;2022-09-16T05:48:49;99691.34;;;13.99;100.00
27587;BME280;15019;49.002;8.420;2022-09-16T05:51:18;99682.34;;;13.86;100.00
27587;BME280;15019;49.002;8.420;2022-09-16T05:53:49;99688.16;;;13.91;100.00
27587;BME280;15019;49.002;8.420;2022-09-16T05:56:19;99680.31;;;13.99;100.00
27587;BME280;15019;49.002;8.420;2022-09-16T05:58:45;99691.16;;;14.08;100.00
27587;BME280;15019;49.002;8.420;2022-09-16T06:01:16;99698.09;;;14.02;100.00
27587;BME280;15019;49.002;8.420;2022-09-16T06:03:44;99686.25;;;13.99;100.00
27587;BME280;15019;49.002;8.420;2022-09-16T06:06:40;99694.78;;;13.98;100.00
27587;BME280;15019;49.002;8.420;2022-09-16T06:09:07;99701.34;;;14.08;100.00
27587;BME280;15019;49.002;8.420;2022-09-16T06:11:36;99700.88;;;13.91;100.00
27587;BME280;15019;49.002;8.420;2022-09-16T06:14:01;99706.63;;;13.99;100.00
27587;BME280;15019;49.002;8.420;2022-09-16T06:16:28;99707.59;;;13.95;100.00
27587;BME280;15019;49.002;8.420;2022-09-16T06:18:54;99704.09;;;13.99;100.00
27587;BME280;15019;49.002;8.420;2022-09-16T06:21:23;99706.13;;;13.85;100.00
27587;BME280;15019;49.002;8.420;2022-09-16T06:23:50;99702.78;;;13.83;100.00
27587;BME280;15019;49.002;8.420;2022-09-16T06:26:18;99709.41;;;13.90;100.00
27587;BME280;15019;49.002;8.420;2022-09-16T06:28:44;99714.53;;;13.88;100.00
27587;BME280;15019;49.002;8.420;2022-09-16T06:31:13;99717.31;;;13.78;100.00
27587;BME280;15019;49.002;8.420;2022-09-16T06:33:38;99714.06;;;13.73;100.00
27587;BME280;15019;49.002;8.420;2022-09-16T06:36:06;99702.75;;;13.84;100.00
27587;BME280;15019;49.002;8.420;2022-09-16T06:38:35;99710.09;;;13.98;100.00
27587;BME280;15019;49.002;8.420;2022-09-16T06:41:06;99703.09;;;14.06;100.00
27587;BME280;15019;49.002;8.420;2022-09-16T06:43:31;99708.03;;;14.12;100.00
27587;BME280;15019;49.002;8.420;2022-09-16T06:45:58;99696.53;;;13.96;100.00
27587;BME280;15019;49.002;8.420;2022-09-16T06:48:24;99704.84;;;14.04;100.00
27587;BME280;15019;49.002;8.420;2022-09-16T06:50:59;99703.78;;;14.13;100.00
27587;BME280;15019;49.002;8.420;2022-09-16T06:53:27;99709.47;;;14.22;100.00
27587;BME280;15019;49.002;8.420;2022-09-16T06:56:03;99707.06;;;14.18;100.00
27587;BME280;15019;49.002;8.420;2022-09-16T06:58:34;99701.78;;;14.25;100.00
27587;BME280;15019;49.002;8.420;2022-09-16T07:01:13;99704.47;;;14.19;100.00
27587;BME280;15019;49.002;8.420;2022-09-16T07:03:42;99698.38;;;14.25;100.00
27587;BME280;15019;49.002;8.420;2022-09-16T07:06:08;99704.16;;;14.32;100.00
27587;BME280;15019;49.002;8.420;2022-09-16T07:08:35;99698.88;;;14.41;100.00
27587;BME280;15019;49.002;8.420;2022-09-16T07:11:12;99704.94;;;14.35;100.00
27587;BME280;15019;49.002;8.420;2022-09-16T07:13:40;99704.09;;;14.35;100.00
27587;BME280;15019;49.002;8.420;2022-09-16T07:16:08;99712.59;;;14.34;100.00
27587;BME280;15019;49.002;8.420;2022-09-16T07:18:35;99711.16;;;14.23;100.00
27587;BME280;15019;49.002;8.420;2022-09-16T07:21:07;99720.28;;;14.32;100.00
27587;BME280;15019;49.002;8.420;2022-09-16T07:23:35;99713.72;;;14.23;100.00
27587;BME280;15019;49.002;8.420;2022-09-16T07:26:02;99715.97;;;14.36;100.00
27587;BME280;15019;49.002;8.420;2022-09-16T07:28:28;99717.44;;;14.46;100.00
27587;BME280;15019;49.002;8.420;2022-09-16T07:30:53;99715.13;;;14.35;100.00
27587;BME280;15019;49.002;8.420;2022-09-16T07:33:18;99718.22;;;14.49;100.00
27587;BME280;15019;49.002;8.420;2022-09-16T07:35:44;99716.22;;;14.60;100.00
27587;BME280;15019;49.002;8.420;2022-09-16T07:38:09;99720.94;;;14.42;100.00
27587;BME280;15019;49.002;8.420;2022-09-16T07:40:34;99720.63;;;14.54;100.00
27587;BME280;15019;49.002;8.420;2022-09-16T07:43:00;99723.38;;;14.80;100.00
27587;BME280;15019;49.002;8.420;2022-09-16T07:45:25;99719.09;;;15.12;100.00
27587;BME280;15019;49.002;8.420;2022-09-16T07:47:50;99719.63;;;14.93;100.00
27587;BME280;15019;49.002;8.420;2022-09-16T07:50:16;99719.63;;;14.93;100.00
27587;BME280;15019;49.002;8.420;2022-09-16T07:52:41;99729.28;;;14.82;100.00
27587;BME280;15019;49.002;8.420;2022-09-16T07:55:07;99722.78;;;15.01;100.00
27587;BME280;15019;49.002;8.420;2022-09-16T07:57:32;99724.94;;;15.15;100.00
27587;BME280;15019;49.002;8.420;2022-09-16T08:00:01;99730.16;;;15.12;100.00
27587;BME280;15019;49.002;8.420;2022-09-16T08:02:26;99740.34;;;14.81;100.00
27587;BME280;15019;49.002;8.420;2022-09-16T08:04:51;99734.03;;;14.62;100.00
27587;BME280;15019;49.002;8.420;2022-09-16T08:07:17;99732.28;;;14.64;100.00
27587;BME280;15019;49.002;8.420;2022-09-16T08:09:42;99735.56;;;14.69;100.00
27587;BME280;15019;49.002;8.420;2022-09-16T08:12:07;99743.47;;;14.60;100.00
27587;BME280;15019;49.002;8.420;2022-09-16T08:14:33;99737.31;;;14.67;100.00
27587;BME280;15019;49.002;8.420;2022-09-16T08:17:01;99743.47;;;14.92;100.00
27587;BME280;15019;49.002;8.420;2022-09-16T08:19:27;99749.19;;;14.68;100.00
27587;BME280;15019;49.002;8.420;2022-09-16T08:21:52;99747.59;;;14.64;100.00
27587;BME280;15019;49.002;8.420;2022-09-16T08:24:17;99742.25;;;14.73;100.00
27587;BME280;15019;49.002;8.420;2022-09-16T08:26:43;99747.34;;;14.73;100.00
27587;BME280;15019;49.002;8.420;2022-09-16T08:29:09;99746.34;;;14.80;100.00
27587;BME280;15019;49.002;8.420;2022-09-16T08:31:36;99743.69;;;14.83;100.00
27587;BME280;15019;49.002;8.420;2022-09-16T08:34:02;99750.56;;;14.81;100.00
27587;BME280;15019;49.002;8.420;2022-09-16T08:36:29;99752.00;;;14.91;100.00
27587;BME280;15019;49.002;8.420;2022-09-16T08:38:55;99754.91;;;15.09;100.00
27587;BME280;15019;49.002;8.420;2022-09-16T08:41:56;99753.56;;;14.95;100.00
27587;BME280;15019;49.002;8.420;2022-09-16T08:44:31;99752.94;;;14.87;100.00
27587;BME280;15019;49.002;8.420;2022-09-16T08:49:50;99753.28;;;15.06;100.00
27587;BME280;15019;49.002;8.420;2022-09-16T08:52:37;99759.44;;;14.99;100.00
27587;BME280;15019;49.002;8.420;2022-09-16T08:55:11;99764.50;;;15.00;100.00
27587;BME280;15019;49.002;8.420;2022-09-16T08:57:43;99761.78;;;15.07;100.00
27587;BME280;15019;49.002;8.420;2022-09-16T09:00:14;99771.41;;;14.97;100.00
27587;BME280;15019;49.002;8.420;2022-09-16T09:05:17;99777.66;;;14.85;100.00
27587;BME280;15019;49.002;8.420;2022-09-16T09:11:02;99773.91;;;14.98;100.00
27587;BME280;15019;49.002;8.420;2022-09-16T09:16:20;99772.72;;;14.79;100.00
27587;BME280;15019;49.002;8.420;2022-09-16T09:19:25;99774.72;;;14.68;100.00
27587;BME280;15019;49.002;8.420;2022-09-16T09:25:24;99770.56;;;14.96;100.00
27587;BME280;15019;49.002;8.420;2022-09-16T09:30:26;99769.03;;;14.91;100.00
27587;BME280;15019;49.002;8.420;2022-09-16T09:33:35;99773.91;;;14.98;100.00
27587;BME280;15019;49.002;8.420;2022-09-16T09:38:52;99774.78;;;14.97;100.00
27587;BME280;15019;49.002;8.420;2022-09-16T09:41:41;99779.78;;;15.02;100.00
27587;BME280;15019;49.002;8.420;2022-09-16T09:46:39;99777.28;;;15.00;100.00
27587;BME280;15019;49.002;8.420;2022-09-16T09:49:12;99775.41;;;15.06;100.00
27587;BME280;15019;49.002;8.420;2022-09-16T09:51:57;99773.84;;;15.01;100.00
27587;BME280;15019;49.002;8.420;2022-09-16T09:54:25;99772.00;;;15.07;100.00
27587;BME280;15019;49.002;8.420;2022-09-16T09:59:54;99774.09;;;14.92;100.00
27587;BME280;15019;49.002;8.420;2022-09-16T10:02:21;99774.78;;;14.97;100.00
27587;BME280;15019;49.002;8.420;2022-09-16T10:04:47;99779.34;;;14.86;100.00
27587;BME280;15019;49.002;8.420;2022-09-16T10:07:18;99772.66;;;14.82;100.00
27587;BME280;15019;49.002;8.420;2022-09-16T10:09:54;99777.56;;;14.90;100.00
27587;BME280;15019;49.002;8.420;2022-09-16T10:12:28;99780.16;;;14.88;100.00
27587;BME280;15019;49.002;8.420;2022-09-16T10:14:53;99783.31;;;14.96;100.00
27587;BME280;15019;49.002;8.420;2022-09-16T10:17:19;99784.31;;;14.92;100.00
27587;BME280;15019;49.002;8.420;2022-09-16T10:20:16;99786.13;;;14.87;100.00
27587;BME280;15019;49.002;8.420;2022-09-16T10:23:05;99780.88;;;14.93;100.00
27587;BME280;15019;49.002;8.420;2022-09-16T10:25:31;99776.94;;;15.13;100.00
27587;BME280;15019;49.002;8.420;2022-09-16T10:28:03;99771.84;;;15.13;100.00
27587;BME280;15019;49.002;8.420;2022-09-16T10:30:48;99775.91;;;15.20;100.00
27587;BME280;15019;49.002;8.420;2022-09-16T10:33:28;99769.16;;;15.17;100.00
27587;BME280;15019;49.002;8.420;2022-09-16T10:36:18;99767.19;;;15.27;100.00
27587;BME280;15019;49.002;8.420;2022-09-16T10:39:02;99764.44;;;15.34;100.00
27587;BME280;15019;49.002;8.420;2022-09-16T10:41:32;99770.81;;;15.79;100.00
27587;BME280;15019;49.002;8.420;2022-09-16T10:44:24;99765.88;;;15.74;100.00
27587;BME280;15019;49.002;8.420;2022-09-16T10:49:19;99768.63;;;16.22;100.00
27587;BME280;15019;49.002;8.420;2022-09-16T10:51:45;99774.66;;;16.47;100.00
27587;BME280;15019;49.002;8.420;2022-09-16T10:54:23;99765.09;;;16.79;100.00
27587;BME280;15019;49.002;8.420;2022-09-16T10:56:50;99765.19;;;16.76;100.00
27587;BME280;15019;49.002;8.420;2022-09-16T10:59:16;99762.34;;;16.59;100.00
27587;BME280;15019;49.002;8.420;2022-09-16T11:02:09;99753.47;;;16.70;100.00
27587;BME280;15019;49.002;8.420;2022-09-16T11:07:54;99757.94;;;17.13;100.00
27587;BME280;15019;49.002;8.420;2022-09-16T11:10:43;99765.78;;;17.32;100.00
27587;BME280;15019;49.002;8.420;2022-09-16T11:13:45;99764.50;;;17.44;100.00
27587;BME280;15019;49.002;8.420;2022-09-16T11:19:01;99767.13;;;17.42;100.00
27587;BME280;15019;49.002;8.420;2022-09-16T11:24:28;99767.75;;;17.26;100.00
27587;BME280;15019;49.002;8.420;2022-09-16T11:29:52;99763.72;;;17.18;100.00
27587;BME280;15019;49.002;8.420;2022-09-16T11:32:47;99763.72;;;17.42;100.00
27587;BME280;15019;49.002;8.420;2022-09-16T11:38:23;99756.91;;;17.17;100.00
27587;BME280;15019;49.002;8.420;2022-09-16T11:49:44;99744.69;;;18.16;98.32
27587;BME280;15019;49.002;8.420;2022-09-16T11:55:22;99753.72;;;18.24;84.06
27587;BME280;15019;49.002;8.420;2022-09-16T11:57:54;99753.00;;;18.43;83.71
27587;BME280;15019;49.002;8.420;2022-09-16T12:00:21;99744.88;;;18.53;83.84
27587;BME280;15019;49.002;8.420;2022-09-16T12:03:12;99737.63;;;18.43;77.01
27587;BME280;15019;49.002;8.420;2022-09-16T12:06:10;99733.44;;;18.40;80.68
27587;BME280;15019;49.002;8.420;2022-09-16T12:09:12;99728.75;;;18.50;79.51
27587;BME280;15019;49.002;8.420;2022-09-16T12:11:46;99731.88;;;18.36;80.89
27587;BME280;15019;49.002;8.420;2022-09-16T12:14:34;99722.72;;;18.31;85.29
27587;BME280;15019;49.002;8.420;2022-09-16T12:17:10;99727.16;;;17.83;79.88
27587;BME280;15019;49.002;8.420;2022-09-16T12:19:48;99716.78;;;18.08;80.75
27587;BME280;15019;49.002;8.420;2022-09-16T12:24:47;99721.97;;;18.07;88.32
27587;BME280;15019;49.002;8.420;2022-09-16T12:27:33;99711.03;;;18.02;85.56
27587;BME280;15019;49.002;8.420;2022-09-16T12:30:07;99716.34;;;18.19;85.72
27587;BME280;15019;49.002;8.420;2022-09-16T12:32:51;99708.84;;;18.35;76.77
27587;BME280;15019;49.002;8.420;2022-09-16T12:38:15;99709.59;;;18.37;77.80
27587;BME280;15019;49.002;8.420;2022-09-16T12:49:24;99711.38;;;18.14;79.43
27587;BME280;15019;49.002;8.420;2022-09-16T12:52:28;99705.16;;;18.00;78.86
27587;BME280;15019;49.002;8.420;2022-09-16T12:57:49;99706.22;;;17.72;85.18
27587;BME280;15019;49.002;8.420;2022-09-16T13:01:05;99699.09;;;17.57;82.88
27587;BME280;15019;49.002;8.420;2022-09-16T13:03:59;99694.91;;;17.54;82.40
27587;BME280;15019;49.002;8.420;2022-09-16T13:06:32;99690.84;;;17.49;80.15
27587;BME280;15019;49.002;8.420;2022-09-16T13:09:31;99694.44;;;17.45;83.14
27587;BME280;15019;49.002;8.420;2022-09-16T13:12:05;99686.66;;;17.25;79.62
27587;BME280;15019;49.002;8.420;2022-09-16T13:14:44;99684.97;;;17.24;84.40
27587;BME280;15019;49.002;8.420;2022-09-16T13:17:10;99690.09;;;17.00;80.79
27587;BME280;15019;49.002;8.420;2022-09-16T13:19:40;99679.56;;;17.08;85.77
27587;BME280;15019;49.002;8.420;2022-09-16T13:22:18;99685.41;;;17.11;84.16
27587;BME280;15019;49.002;8.420;2022-09-16T13:24:48;99679.75;;;17.27;87.10
27587;BME280;15019;49.002;8.420;2022-09-16T13:27:51;99677.13;;;17.50;83.83
27587;BME280;15019;49.002;8.420;2022-09-16T13:35:39;99667.00;;;17.47;77.01
27587;BME280;15019;49.002;8.420;2022-09-16T13:40:51;99665.44;;;17.43;77.91
27587;BME280;15019;49.002;8.420;2022-09-16T13:43:27;99667.44;;;17.58;81.66
27587;BME280;15019;49.002;8.420;2022-09-16T13:46:07;99665.84;;;17.77;74.15
27587;BME280;15019;49.002;8.420;2022-09-16T13:49:25;99670.25;;;17.96;78.88
27587;BME280;15019;49.002;8.420;2022-09-16T13:51:25;99661.16;;;18.09;76.74
27587;BME280;15019;49.002;8.420;2022-09-16T13:53:52;99673.22;;;18.07;77.04
27587;BME280;15019;49.002;8.420;2022-09-16T14:04:54;99661.19;;;17.87;68.31
27587;BME280;15019;49.002;8.420;2022-09-16T14:10:18;99659.63;;;17.83;71.34
27587;BME280;15019;49.002;8.420;2022-09-16T14:13:03;99662.66;;;17.92;76.06
27587;BME280;15019;49.002;8.420;2022-09-16T14:15:59;99661.16;;;18.09;67.80
27587;BME280;15019;49.002;8.420;2022-09-16T14:18:29;99662.22;;;18.03;67.94
27587;BME280;15019;49.002;8.420;2022-09-16T14:21:16;99664.72;;;18.05;64.88
27587;BME280;15019;49.002;8.420;2022-09-16T14:23:46;99670.66;;;18.27;70.11
27587;BME280;15019;49.002;8.420;2022-09-16T14:26:17;99649.84;;;18.33;67.47
27587;BME280;15019;49.002;8.420;2022-09-16T14:28:43;99662.63;;;18.35;64.18
27587;BME280;15019;49.002;8.420;2022-09-16T14:31:17;99655.38;;;18.24;58.77
27587;BME280;15019;49.002;8.420;2022-09-16T14:33:53;99662.44;;;18.19;61.37
27587;BME280;15019;49.002;8.420;2022-09-16T14:36:23;99654.81;;;18.17;60.32
27587;BME280;15019;49.002;8.420;2022-09-16T14:38:57;99657.44;;;18.16;62.01
27587;BME280;15019;49.002;8.420;2022-09-16T14:41:28;99648.97;;;18.14;63.27
27587;BME280;15019;49.002;8.420;2022-09-16T14:44:05;99651.78;;;18.08;62.21
27587;BME280;15019;49.002;8.420;2022-09-16T14:46:31;99640.50;;;18.12;66.10
27587;BME280;15019;49.002;8.420;2022-09-16T14:48:57;99652.81;;;18.04;65.55
27587;BME280;15019;49.002;8.420;2022-09-16T14:51:24;99647.81;;;18.01;64.13
27587;BME280;15019;49.002;8.420;2022-09-16T14:53:56;99645.25;;;18.01;65.68
27587;BME280;15019;49.002;8.420;2022-09-16T14:56:22;99647.16;;;18.16;62.91
27587;BME280;15019;49.002;8.420;2022-09-16T14:58:48;99648.84;;;18.17;66.17
27587;BME280;15019;49.002;8.420;2022-09-16T15:01:21;99649.22;;;18.08;66.21
27587;BME280;15019;49.002;8.420;2022-09-16T15:04:13;99649.72;;;17.96;64.70
27587;BME280;15019;49.002;8.420;2022-09-16T15:06:45;99645.09;;;18.04;68.01
27587;BME280;15019;49.002;8.420;2022-09-16T15:12:18;99651.53;;;18.14;65.41
27587;BME280;15019;49.002;8.420;2022-09-16T15:14:44;99651.59;;;18.12;65.53
27587;BME280;15019;49.002;8.420;2022-09-16T15:17:16;99652.56;;;18.30;66.03
27587;BME280;15019;49.002;8.420;2022-09-16T15:19:49;99651.91;;;18.45;60.61
27587;BME280;15019;49.002;8.420;2022-09-16T15:22:15;99648.72;;;18.40;62.94
27587;BME280;15019;49.002;8.420;2022-09-16T15:24:42;99656.66;;;18.34;59.36
27587;BME280;15019;49.002;8.420;2022-09-16T15:27:08;99654.75;;;18.39;63.89
27587;BME280;15019;49.002;8.420;2022-09-16T15:29:35;99660.28;;;18.30;66.14